createdAt,value
2022-11-26T00:04:58.474Z,15.63
2022-11-26T00:10:02.335Z,11.50
2022-11-26T00:15:17.038Z,15.27
2022-11-26T00:20:22.009Z,14.87
2022-11-26T00:25:28.086Z,13.37
2022-11-26T00:30:32.642Z,13.47
2022-11-26T00:35:35.850Z,6.17
2022-11-26T00:40:38.949Z,7.37
2022-11-26T00:45:43.828Z,8.50
2022-11-26T00:50:50.181Z,6.00
2022-11-26T00:55:53.326Z,8.80
2022-11-26T01:00:59.576Z,6.87
2022-11-26T01:06:02.760Z,6.50
2022-11-26T01:11:06.621Z,4.97
2022-11-26T01:16:20.163Z,5.20
2022-11-26T01:21:23.814Z,8.93
2022-11-26T01:26:28.977Z,4.70
2022-11-26T01:31:34.268Z,8.60
2022-11-26T01:36:39.156Z,6.70
2022-11-26T01:41:46.597Z,5.47
2022-11-26T01:46:52.159Z,7.20
2022-11-26T01:52:04.105Z,5.03
2022-11-26T01:57:10.926Z,6.17
2022-11-26T02:02:15.504Z,7.20
2022-11-26T02:07:18.718Z,5.50
2022-11-26T02:12:22.214Z,5.33
2022-11-26T02:17:35.219Z,5.93
2022-11-26T02:23:17.445Z,8.53
2022-11-26T02:28:39.539Z,8.90
2022-11-26T02:33:50.716Z,12.90
2022-11-26T02:38:53.796Z,6.83
2022-11-26T02:43:56.993Z,9.77
2022-11-26T02:49:01.601Z,7.57
2022-11-26T02:54:07.660Z,9.37
2022-11-26T02:59:11.966Z,6.70
2022-11-26T03:04:21.020Z,5.70
2022-11-26T03:09:24.731Z,7.50
2022-11-26T03:14:27.819Z,4.33
2022-11-26T03:19:32.336Z,4.63
2022-11-26T03:24:35.864Z,8.03
2022-11-26T03:29:39.115Z,8.63
2022-11-26T03:34:44.040Z,6.57
2022-11-26T03:39:47.163Z,5.80
2022-11-26T03:44:50.416Z,5.97
2022-11-26T03:49:54.903Z,7.17
2022-11-26T03:54:58.032Z,7.13
2022-11-26T04:00:01.165Z,8.13
2022-11-26T04:05:06.521Z,4.97
2022-11-26T04:10:10.774Z,3.93
2022-11-26T04:15:13.841Z,9.33
2022-11-26T04:20:18.587Z,4.77
2022-11-26T04:25:21.708Z,7.23
2022-11-26T04:30:24.890Z,8.47
2022-11-26T04:35:29.386Z,5.97
2022-11-26T04:40:32.485Z,6.30
2022-11-26T04:45:35.639Z,5.07
2022-11-26T04:50:40.117Z,7.47
2022-11-26T04:55:43.512Z,5.43
2022-11-26T05:00:50.642Z,4.90
2022-11-26T05:05:55.847Z,6.23
2022-11-26T05:11:01.425Z,7.47
2022-11-26T05:16:05.166Z,8.43
2022-11-26T05:21:09.801Z,5.17
2022-11-26T05:26:12.955Z,6.57
2022-11-26T05:31:16.286Z,6.43
2022-11-26T05:36:20.795Z,6.17
2022-11-26T05:41:23.899Z,5.90
2022-11-26T05:46:27.297Z,8.33
2022-11-26T05:51:31.775Z,6.13
2022-11-26T05:56:35.093Z,5.83
2022-11-26T06:01:38.385Z,6.50
2022-11-26T06:06:42.863Z,5.83
2022-11-26T06:11:46.083Z,5.43
2022-11-26T06:16:49.212Z,5.87
2022-11-26T06:21:53.711Z,7.40
2022-11-26T06:26:56.845Z,6.13
2022-11-26T06:32:00.086Z,6.00
2022-11-26T06:37:04.670Z,4.80
2022-11-26T06:42:07.825Z,7.17
2022-11-26T06:47:12.455Z,9.27
2022-11-26T06:52:16.986Z,6.47
2022-11-26T06:57:20.085Z,9.90
2022-11-26T07:02:23.289Z,7.53
2022-11-26T07:07:27.975Z,7.73
2022-11-26T07:12:31.124Z,7.40
2022-11-26T07:17:34.219Z,9.47
2022-11-26T07:22:38.659Z,6.63
2022-11-26T07:27:42.138Z,8.73
2022-11-26T07:32:45.356Z,5.87
2022-11-26T07:37:49.797Z,4.97
2022-11-26T07:42:53.463Z,7.10
2022-11-26T07:47:56.700Z,6.97
2022-11-26T07:53:01.249Z,7.63
2022-11-26T07:58:04.328Z,7.70
2022-11-26T08:03:07.411Z,12.83
2022-11-26T08:08:13.168Z,12.93
2022-11-26T08:13:16.250Z,11.50
2022-11-26T08:18:19.339Z,11.07
2022-11-26T08:23:24.041Z,8.70
2022-11-26T08:28:27.120Z,9.30
2022-11-26T08:33:30.291Z,8.40
2022-11-26T08:38:34.892Z,9.70
2022-11-26T08:44:05.610Z,7.87
2022-11-26T08:49:01.767Z,8.20
2022-11-26T08:54:06.505Z,7.70
2022-11-26T08:59:09.692Z,7.63
2022-11-26T09:04:12.939Z,7.87
2022-11-26T09:09:17.979Z,6.50
2022-11-26T09:14:22.946Z,8.83
2022-11-26T09:19:26.444Z,8.57
2022-11-26T09:24:30.968Z,6.60
2022-11-26T09:29:34.057Z,6.97
2022-11-26T09:34:37.398Z,8.10
2022-11-26T09:39:42.062Z,8.00
2022-11-26T09:45:04.194Z,8.40
2022-11-26T09:50:18.559Z,6.60
2022-11-26T09:55:25.804Z,10.50
2022-11-26T10:00:31.030Z,11.20
2022-11-26T10:05:48.430Z,7.53
2022-11-26T10:11:02.516Z,7.37
2022-11-26T10:16:13.938Z,9.60
2022-11-26T10:21:38.069Z,15.83
2022-11-26T10:26:50.554Z,9.83
2022-11-26T10:31:58.575Z,10.20
2022-11-26T10:37:01.807Z,9.60
2022-11-26T10:42:11.525Z,10.10
2022-11-26T10:47:28.820Z,11.00
2022-11-26T10:52:34.756Z,7.97
2022-11-26T10:57:47.650Z,9.50
2022-11-26T11:02:51.023Z,10.23
2022-11-26T11:07:54.976Z,10.13
2022-11-26T11:13:12.899Z,10.33
2022-11-26T11:18:20.544Z,9.13
2022-11-26T11:23:40.339Z,10.23
2022-11-26T11:28:52.664Z,9.20
2022-11-26T11:34:13.620Z,7.73
2022-11-26T11:39:30.446Z,6.83
2022-11-26T11:44:40.234Z,7.83
2022-11-26T11:49:59.620Z,7.10
2022-11-26T11:55:14.833Z,6.93
2022-11-26T12:00:21.243Z,7.93
2022-11-26T12:05:46.431Z,7.23
2022-11-26T12:10:59.221Z,6.40
2022-11-26T12:16:09.761Z,6.73
2022-11-26T12:21:15.143Z,8.30
2022-11-26T12:26:23.868Z,8.77
2022-11-26T12:31:34.257Z,9.83
2022-11-26T12:36:44.900Z,8.50
2022-11-26T12:41:52.891Z,7.77
2022-11-26T12:47:05.640Z,8.13
2022-11-26T12:52:32.477Z,7.20
2022-11-26T12:57:40.959Z,7.37
2022-11-26T13:02:48.832Z,7.20
2022-11-26T13:08:09.059Z,7.73
2022-11-26T13:13:18.930Z,8.70
2022-11-26T13:18:31.738Z,8.07
2022-11-26T13:23:49.528Z,8.33
2022-11-26T13:29:12.447Z,9.73
2022-11-26T13:34:38.505Z,9.00
2022-11-26T13:40:14.546Z,8.43
2022-11-26T13:45:54.484Z,9.57
2022-11-26T13:51:01.690Z,7.00
2022-11-26T13:56:07.167Z,8.17
2022-11-26T14:01:31.220Z,8.83
2022-11-26T14:06:36.615Z,8.77
2022-11-26T14:12:00.799Z,9.73
2022-11-26T14:17:18.537Z,8.30
2022-11-26T14:22:31.188Z,8.13
2022-11-26T14:27:35.786Z,8.73
2022-11-26T14:32:42.816Z,6.60
2022-11-26T14:37:54.703Z,8.27
2022-11-26T14:43:15.515Z,6.93
2022-11-26T14:48:24.901Z,5.33
2022-11-26T14:53:31.923Z,8.37
2022-11-26T14:58:38.901Z,6.93
2022-11-26T15:03:42.249Z,8.23
2022-11-26T15:08:46.739Z,9.10
2022-11-26T15:13:49.855Z,9.37
2022-11-26T15:18:55.048Z,6.90
2022-11-26T15:24:03.332Z,9.30
2022-11-26T15:29:32.818Z,9.87
2022-11-26T15:34:36.076Z,8.73
2022-11-26T15:39:40.521Z,9.07
2022-11-26T15:44:44.070Z,7.07
2022-11-26T15:49:52.024Z,6.57
2022-11-26T15:55:17.673Z,4.77
2022-11-26T16:00:24.034Z,7.10
2022-11-26T16:05:33.923Z,6.97
2022-11-26T16:10:39.609Z,18.03
2022-11-26T16:15:48.683Z,17.30
2022-11-26T16:21:01.379Z,12.30
2022-11-26T16:26:16.147Z,11.20
2022-11-26T16:31:19.917Z,11.27
2022-11-26T16:36:25.631Z,11.40
2022-11-26T16:41:30.064Z,13.37
2022-11-26T16:46:35.439Z,14.60
2022-11-26T16:51:38.654Z,13.03
2022-11-26T16:56:43.566Z,16.63
2022-11-26T17:01:46.861Z,14.07
2022-11-26T17:06:50.046Z,15.33
2022-11-26T17:11:54.471Z,28.73
2022-11-26T17:16:58.311Z,26.77
2022-11-26T17:22:01.423Z,82.57
2022-11-26T17:27:12.372Z,34.93
2022-11-26T17:32:17.160Z,18.43
2022-11-26T17:37:25.369Z,18.00
2022-11-26T17:42:35.020Z,15.53
2022-11-26T17:47:39.718Z,13.87
2022-11-26T17:52:42.817Z,14.27
2022-11-26T17:57:47.297Z,12.63
2022-11-26T18:02:50.580Z,11.47
2022-11-26T18:07:53.798Z,12.03
2022-11-26T18:12:58.501Z,13.43
2022-11-26T18:18:01.580Z,14.80
2022-11-26T18:23:04.702Z,13.60
2022-11-26T18:28:09.191Z,18.70
2022-11-26T18:33:13.953Z,22.90
2022-11-26T18:38:17.035Z,23.70
2022-11-26T18:43:21.667Z,18.73
2022-11-26T18:48:24.788Z,15.97
2022-11-26T18:53:28.463Z,42.53
2022-11-26T18:58:32.917Z,23.07
2022-11-26T19:03:38.696Z,16.97
2022-11-26T19:08:44.695Z,19.70
2022-11-26T19:13:49.671Z,18.20
2022-11-26T19:18:53.059Z,17.13
2022-11-26T19:23:57.747Z,17.10
2022-11-26T19:29:05.064Z,17.47
2022-11-26T19:34:10.312Z,17.83
2022-11-26T19:39:13.438Z,18.83
2022-11-26T19:44:18.049Z,19.97
2022-11-26T19:49:21.145Z,19.20
2022-11-26T19:54:24.508Z,14.67
2022-11-26T19:59:29.023Z,14.87
2022-11-26T20:04:32.180Z,15.63
2022-11-26T20:09:35.430Z,15.77
2022-11-26T20:14:39.904Z,15.83
2022-11-26T20:19:43.149Z,13.07
2022-11-26T20:24:46.373Z,12.77
2022-11-26T20:29:51.017Z,12.20
2022-11-26T20:34:54.207Z,13.03
2022-11-26T20:39:57.564Z,10.77
2022-11-26T20:45:02.082Z,12.53
2022-11-26T20:50:06.713Z,11.70
2022-11-26T20:55:10.738Z,13.20
2022-11-26T21:00:17.491Z,18.23
2022-11-26T21:05:21.441Z,15.40
2022-11-26T21:10:26.394Z,13.90
2022-11-26T21:15:30.854Z,18.67
2022-11-26T21:20:36.334Z,21.07
2022-11-26T21:25:40.839Z,24.27
2022-11-26T21:30:45.350Z,17.90
2022-11-26T21:35:48.472Z,25.80
2022-11-26T21:40:51.656Z,16.70
2022-11-26T21:45:56.199Z,14.80
2022-11-26T21:50:59.779Z,13.57
2022-11-26T21:56:06.768Z,11.73
2022-11-26T22:01:15.952Z,10.33
2022-11-26T22:06:20.660Z,23.90
2022-11-26T22:11:26.212Z,12.33
2022-11-26T22:16:31.592Z,11.50
2022-11-26T22:21:36.612Z,12.20
2022-11-26T22:26:39.878Z,11.67
2022-11-26T22:31:45.014Z,12.13
2022-11-26T22:36:48.199Z,12.80
2022-11-26T22:41:51.503Z,12.47
2022-11-26T22:46:55.967Z,25.00
2022-11-26T22:51:59.154Z,15.97
2022-11-26T22:57:02.514Z,11.47
2022-11-26T23:02:07.049Z,11.60
2022-11-26T23:07:10.240Z,12.73
2022-11-26T23:12:13.396Z,13.13
2022-11-26T23:17:17.939Z,10.77
2022-11-26T23:22:23.208Z,23.50
2022-11-26T23:27:26.327Z,13.27
2022-11-26T23:32:32.428Z,19.07
2022-11-26T23:37:36.293Z,31.60
2022-11-26T23:42:39.376Z,15.17
2022-11-26T23:47:43.908Z,25.93
2022-11-26T23:52:47.028Z,24.20
2022-11-26T23:57:50.116Z,10.90
